Tiempo atmosférico en la estación meteorológica de Bilbao Aeropuerto, Bizkaia (42 m.)



Fecha
DESCASC
Temp. máxima en grados centígrados (hora)
DESCASC
Temp. mínima en grados centígrados (hora)
DESCASC
Temp. media en grados centígrados
DESCASC
Racha de viento máxima en m/sg (hora)
DESCASC
Velocidad máxima media en intervalos de 10 minutos(hora)
DESCASC
Precipitaciones diarias en mm
DESCASC
Precipitaciones de 00:00 a 06:00 en mm
DESCASC
Precipitaciones de 06:00 a 12:00 en mm
DESCASC
Precipitaciones de 12:00 a 18:00 en mm
DESCASC
Precipitaciones de 18:00 a 24:00 en mm
DESCASC
28-02-2021 13.1 (14:30) 5.3 (07:30) 9.2 8.89 (15:30) 5.28 (23:10) 8.1 0 0 0 8.1
27-02-2021 12.4 (16:10) 8.8 (23:59) 10.6 8.89 (16:50) 5 (15:30) 0 0 0 0 0
26-02-2021 13.7 (14:50) 11.4 (23:20) 12.5 5 (14:50) 3.61 (13:40) 0 0 0 0 0
25-02-2021 16.4 (13:10) 12 (00:00) 14.2 8.89 (06:40) 6.11 (06:40) 0 0 0 0 0
24-02-2021 22 (14:50) 13.2 (00:00) 17.6 15 (11:00) 9.72 (11:20) 0 0 0 0 0
23-02-2021 20 (16:10) 7.2 (00:00) 13.6 17.5 (11:00) 10 (11:40) 0 0 0 0 0
22-02-2021 12.5 (14:10) 7.5 (00:00) 10 9.72 (13:30) 6.11 (13:30) 14.9 10.3 4.6 0 0
21-02-2021 18.2 (13:30) 7.8 (00:00) 13 23.33 (07:40) 15.28 (05:50) 15 0 0 0 15
20-02-2021 22.3 (16:20) 16.4 (00:00) 19.3 18.06 (00:10) 9.72 (09:20) 0 0 0 0 0
19-02-2021 21.8 (17:50) 8 (00:00) 14.9 16.39 (11:50) 8.89 (16:00) 0 0 0 0 0
18-02-2021 19.5 (00:30) 8.4 (00:00) 13.9 12.78 (00:50) 6.67 (11:00) 0.4 0 0 0 0.4
17-02-2021 20.4 (14:40) 6.6 (00:00) 13.5 15.28 (13:40) 8.61 (13:40) 0.2 0 0 0.2 0
16-02-2021 19.6 (12:50) 8.8 (00:00) 14.2 16.11 (01:30) 9.72 (12:30) 0.1 0 0 0 0.1
15-02-2021 18.6 (15:50) 12.5 (00:00) 15.6 18.89 (22:40) 11.39 (22:40) 0 0 0 0 0
14-02-2021 19.6 (14:50) 5.5 (00:00) 12.6 16.11 (13:30) 10.28 (13:40) 0 0 0 0 0
13-02-2021 17.1 (17:00) 6.2 (00:00) 11.7 5 (09:30) 3.61 (09:30) 0 0 0 0 0
12-02-2021 18.8 (04:10) 9.6 (00:00) 14.2 16.94 (15:50) 11.11 (15:10) 7.9 0.7 2.6 4.6 0
11-02-2021 20.4 (16:20) 4.7 (00:00) 12.5 9.17 (17:10) 4.72 (17:00) 0 0 0 0 0
10-02-2021 13.9 (15:50) 7.2 (00:00) 10.5 13.33 (14:30) 9.72 (14:30) 0 0 0 0 0
09-02-2021 16.1 (12:40) 8.7 (00:00) 12.4 16.39 (16:30) 8.89 (16:30) 0 0 0 0 0
08-02-2021 15 (13:00) 8.7 (00:00) 11.8 11.67 (00:30) 7.78 (17:20) 0.4 0 0.4 0 0
07-02-2021 12.5 (14:30) 4.8 (00:00) 8.7 13.89 (23:59) 7.78 (23:59) 0.5 0.3 0 0.1 0.1
06-02-2021 11.4 (00:30) 7.6 (00:00) 9.5 15 (14:30) 8.61 (11:40) 35.8 3.7 21.1 10.4 0.6
05-02-2021 11.9 (13:20) 10.1 (00:00) 11 6.11 (17:00) 3.61 (17:00) 2.2 0 2.2 0 0
04-02-2021 16.4 (13:50) 9.8 (00:00) 13.1 8.33 (05:00) 6.67 (18:40) 9.2 0 0 0.2 9
03-02-2021 20.2 (14:20) 13.3 (00:00) 16.8 15 (06:30) 8.89 (11:00) 0 0 0 0 0
02-02-2021 20.5 (14:20) 10.2 (00:00) 15.3 15 (20:50) 8.61 (17:20) 0.2 0 0 0.2 0
01-02-2021 16.4 (16:10) 12.8 (00:00) 14.6 18.61 (00:30) 11.67 (00:30) 1.4 0 0 0 1.4
31-01-2021 15.9 (17:00) 9.8 (00:00) 12.8 23.61 (03:30) 15.83 (03:20) 5 2 2.8 0.2 0

Gráficas

Temp. máximas Temp. mínimas Temp. medias Precipitaciones Rachas de viento máximas Velocidades máximas media en intervalos de 10 minutos

Datos horarios

Fecha y hora oficial Temperatura (ºC) Velocidad del viento (km/h) Dirección del viento Racha (km/h) Dirección de racha Precipitación (mm) Presión (hPa) Tendencia (hPa) Humedad (%)
2021-03-01 23:00:00 14.2 25 Sudeste 46 Sudeste 0 1017.1 0 60
2021-03-01 22:00:00 14.4 28 Sudeste 48 Sudeste 0 1016.9 0.5 59
2021-03-01 21:00:00 14.4 27 Sudeste 46 Sudeste 0 1017.1 1 59
2021-03-01 20:00:00 14.6 25 Sudeste 48 Sudeste 0 1017.1 1.3 57
2021-03-01 19:00:00 14.9 31 Sudeste 48 Sudeste 0 1016.4 0.6 56
2021-03-01 18:00:00 15.4 31 Sudeste 52 Sudeste 0 1016.1 0.3 56
2021-03-01 17:00:00 16.1 35 Sudeste 52 Sudeste 0 1015.8 -0.6 53
2021-03-01 16:00:00 15.9 31 Sudeste 54 Sudeste 0 1015.8 -0.9 53
2021-03-01 15:00:00 16.7 30 Sudeste 50 Sudeste 0 1015.8 -1.1 53
2021-03-01 14:00:00 16.6 26 Sudeste 52 Sudeste 0 1016.4 -- 52
2021-03-01 13:00:00 16.5 26 Sudeste 42 Sudeste 0 1016.7 -- 51
2021-03-01 12:00:00 16.2 22 Sudeste 39 Sudeste 0 1016.9 -- 53
2021-03-01 11:00:00 15 24 Sudeste 50 Sudeste 0 1016.8 -- 56
2021-03-01 10:00:00 14 22 Sudeste 50 Sudeste 0 1017 -- 57
2021-03-01 09:00:00 12.9 31 Sudeste 50 Sudeste 0 1016.7 -- 59
2021-03-01 08:00:00 12.6 27 Sudeste 50 Sudeste 0 1016.4 -- 59
2021-03-01 07:00:00 12.7 29 Sudeste 63 Sudeste 0 1016.2 -- 57
2021-03-01 06:00:00 12.3 29 Sudeste 55 Sudeste 0 1016 -- 60
2021-03-01 05:00:00 12.2 29 Sudeste 50 Sur 0 1016.3 -- 61
2021-03-01 04:00:00 12.1 28 Sudeste 48 Sudeste 0 1016 -- 61
2021-03-01 03:00:00 12.3 23 Sudeste 39 Sudeste 0 1016 -- 62
2021-03-01 02:00:00 12.5 20 Sudeste 48 Sudeste 0 1016.2 -- 64
2021-03-01 01:00:00 11.9 24 Sudeste 35 Sudeste 0 1015.6 -- 71
2021-03-01 00:00:00 10.3 12 Este 32 Sur 0.4 1015.9 -- 92
2021-02-28 23:00:00 10.2 11 Sur 24 Sudeste 0.1 1016.4 0.4 96
2021-02-28 22:00:00 10 17 Este 21 Este 7.1 1015.9 -- 95
2021-02-28 21:00:00 10.1 8 Sudeste 11 Este 0.3 1015.9 -- 90
2021-02-28 20:00:00 10.6 6 Sudeste 17 Este 0 1016 -- 85
2021-02-28 19:00:00 11.1 9 Nordeste 18 Nordeste 0.2 1016.1 -- 82
2021-02-28 18:00:00 12.1 14 Nordeste 22 Nordeste 0 1016.1 -- 74
2021-02-28 17:00:00 12.9 11 Nordeste 24 Nordeste 0 1016.3 -- 69
2021-02-28 16:00:00 12.4 15 Nordeste 32 Nordeste 0 1016.7 -- 70
2021-02-28 15:00:00 12.6 13 Nordeste 17 Nordeste 0 1017.3 -- 71
2021-02-28 14:00:00 12.3 4 Este 11 Sudeste 0 1018 -- 71
2021-02-28 13:00:00 11.4 3 Noroeste 8 Noroeste 0 1019.2 -- 74
2021-02-28 12:00:00 10.3 0 Calma 5 Nordeste 0 1019.8 -- 79
2021-02-28 11:00:00 9.2 0 Calma 5 Nordeste 0 1020.3 -- 85
2021-02-28 10:00:00 7.9 0 Calma 8 Nordeste 0 1020.5 -- 90
2021-02-28 09:00:00 6.8 6 Este 9 Este 0 1020.6 -- 95
2021-02-28 08:00:00 5.8 5 Este 9 Sudeste 0 1020.6 -- 95
2021-02-28 07:00:00 5.5 0 Calma 8 Nordeste 0 1020.6 -- 94
2021-02-28 06:00:00 6 5 Nordeste 8 Nordeste 0 1020.7 -- 93
2021-02-28 05:00:00 6.7 5 Este 8 Este 0 1020.8 -- 93
2021-02-28 04:00:00 6.9 0 Calma 8 Este 0 1021 -- 90
2021-02-28 03:00:00 8 6 Este 8 Este 0 1021.7 -- 87
2021-02-28 02:00:00 8.3 5 Nordeste 13 Sudeste 0 1022.3 -- 86
2021-02-28 01:00:00 8.9 3 Noroeste 9 Este 0 1022.7 -- 82
2021-02-28 00:00:00 8.9 2 Este 5 Este 0 1023.4 -- 83
2021-02-27 23:00:00 9.1 0 Calma 5 Noroeste 0 1024.2 -- 80
2021-02-27 22:00:00 9.1 0 Calma 5 Oeste 0 1024.4 -- 79
2021-02-27 21:00:00 9 0 Calma 8 Noroeste 0 1024.7 -- 79
2021-02-27 20:00:00 9.4 6 Noroeste 9 Noroeste 0 1025 -- 76
2021-02-27 19:00:00 9.2 8 Noroeste 18 Norte 0 1025 -- 76
2021-02-27 18:00:00 10.7 12 Noroeste 24 Norte 0 1025 -- 67
2021-02-27 17:00:00 11.8 15 Noroeste 32 Noroeste 0 1025.3 -- 64
2021-02-27 16:00:00 12.1 14 Oeste 26 Oeste 0 1025.5 -- 65
2021-02-27 15:00:00 11.9 17 Oeste 24 Noroeste 0 1025.8 -- 71
2021-02-27 14:00:00 11.2 11 Noroeste 21 Norte 0 1026.5 -- 75
2021-02-27 13:00:00 11.7 9 Oeste 15 Oeste 0 1027 -- 76
2021-02-27 12:00:00 11.6 4 Norte 15 Nordeste 0 1027.3 -- 75
2021-02-27 11:00:00 11 11 Nordeste 21 Norte 0 1027.8 -- 79
2021-02-27 10:00:00 10.7 8 Este 22 Nordeste 0 1027.9 -- 83
2021-02-27 09:00:00 10.8 3 Nordeste 15 Nordeste 0 1027.5 -- 88
2021-02-27 08:00:00 10.8 7 Nordeste 18 Nordeste 0 1027.1 -- 90
2021-02-27 07:00:00 10.9 0 Calma 4 Sudeste 0 1026.9 -- 91
2021-02-27 06:00:00 10.9 0 Calma 4 Norte 0 1027 -- 90
2021-02-27 05:00:00 10.9 3 Noroeste 5 Noroeste 0 1027.2 -- 90
2021-02-27 04:00:00 10.9 3 Oeste 8 Noroeste 0 1027.2 -- 90
2021-02-27 03:00:00 10.9 5 Noroeste 8 Noroeste 0 1027.7 -- 89
2021-02-27 02:00:00 11.3 0 Calma 9 Este 0 1027.9 -- 87
2021-02-27 01:00:00 11.3 5 Este 8 Este 0 1028.2 -- 87
2021-02-27 00:00:00 11.4 2 Sur 11 Nordeste 0 1028.2 -- 88
2021-02-26 23:00:00 11.6 5 Norte 17 Norte 0 1028.4 0.6 90
2021-02-26 22:00:00 11.9 7 Nordeste 9 Nordeste 0 1027.8 -- 84
2021-02-26 21:00:00 12.1 4 Norte 11 Este 0 1027.6 -- 82
2021-02-26 20:00:00 12.3 4 Este 11 Nordeste 0 1027.8 0.7 80
2021-02-26 19:00:00 12.5 9 Nordeste 17 Nordeste 0 1027.6 -- 80
2021-02-26 18:00:00 12.5 9 Oeste 15 Oeste 0 1027.2 -0.5 85
2021-02-26 17:00:00 12.8 9 Oeste 13 Oeste 0 1027.1 -- 84
2021-02-26 16:00:00 13.3 10 Oeste 13 Oeste 0 1027.4 -- 81
2021-02-26 15:00:00 13.5 6 Noroeste 18 Noroeste 0 1027.7 -- 78
2021-02-26 14:00:00 13.2 9 Oeste 17 Oeste 0 1028.2 -- 79
2021-02-26 13:00:00 13.1 12 Oeste 15 Oeste 0 1028.9 -- 80
2021-02-26 12:00:00 13 7 Oeste 15 Norte 0 1028.9 -- 81
2021-02-26 11:00:00 12.5 4 Nordeste 11 Nordeste 0 1028.9 -- 83
2021-02-26 10:00:00 12 5 Norte 11 Nordeste 0 1028.6 -- 85
2021-02-26 09:00:00 11.7 7 Nordeste 9 Este 0 1028.2 -- 89
2021-02-26 08:00:00 11.6 5 Nordeste 15 Norte 0 1028 -- 89
2021-02-26 07:00:00 11.7 2 Nordeste 8 Nordeste 0 1027.7 -- 90
2021-02-26 06:00:00 11.9 3 Este 8 Este 0 1027.6 -- 90
2021-02-26 05:00:00 11.9 4 Nordeste 8 Nordeste 0 1027.6 -- 91
2021-02-26 04:00:00 11.8 0 Calma 9 Norte 0 1027.9 -- 92
2021-02-26 03:00:00 11.9 9 Noroeste -- -- 0 1028.2 -- 93
2021-02-26 02:00:00 12.2 0 Calma 4 Sur 0 1028.3 -- 92
2021-02-26 01:00:00 12.2 0 Calma 8 Noroeste 0 1028.5 -- 92
2021-02-26 00:00:00 12.2 4 Oeste 8 Noroeste 0 1028.3 -- 93
2021-02-25 23:00:00 12.1 2 Oeste 9 Noroeste 0 1028.2 -- 92
2021-02-25 22:00:00 12.4 9 Noroeste 13 Norte 0 1027.8 -- 91
2021-02-25 21:00:00 12.5 10 Noroeste 13 Noroeste 0 1027.3 1.8 90
2021-02-25 20:00:00 13 7 Oeste 9 Noroeste 0 1026.9 -- 85
2021-02-25 19:00:00 13.2 4 Nordeste 17 Norte 0 1026.3 -- 82
2021-02-25 18:00:00 13.6 10 Noroeste 17 Oeste 0 1025.5 -- 80
2021-02-25 17:00:00 13.9 14 Oeste 22 Oeste 0 1024.9 -- 81
2021-02-25 16:00:00 14.5 13 Noroeste 24 Noroeste 0 1024.5 -0.4 78
2021-02-25 15:00:00 14.7 14 Noroeste 24 Oeste 0 1024.4 -- 74
2021-02-25 14:00:00 15.8 13 Noroeste 18 Noroeste 0 1024.3 -- 71
2021-02-25 13:00:00 16 4 Norte 11 Noroeste 0 1024.9 -- 56
2021-02-25 12:00:00 15.3 5 Noroeste 13 Sudeste 0 1024.7 -- 57
2021-02-25 11:00:00 14.5 5 Sudeste 17 Sur 0 1024.4 -- 59
2021-02-25 10:00:00 14.1 4 Sur 24 Este 0 1023.9 -- 60
2021-02-25 09:00:00 13.3 10 Sudeste 30 Sudeste 0 1022.9 -- 62
2021-02-25 08:00:00 13.1 18 Este 30 Sudeste 0 1022 -- 61
2021-02-25 07:00:00 13.5 19 Este 32 Este 0 1021.4 -- 62
2021-02-25 06:00:00 13.3 17 Este 30 Este 0 1021.3 -- 66
2021-02-25 05:00:00 14.9 16 Sur 30 Sur 0 1020.9 -- 60
2021-02-25 04:00:00 14.5 16 Sudeste 24 Sur 0 1021.1 -- 65
2021-02-25 03:00:00 14.1 14 Sudeste 17 Sudeste 0 1021.4 -- 69
2021-02-25 02:00:00 14.5 7 Este 11 Este 0 1021.8 -- 70
2021-02-25 01:00:00 15.8 3 Nordeste 17 Norte 0 1021.9 -- 64
2021-02-25 00:00:00 15.7 10 Norte 22 Este 0 1021.7 -- 64
2021-02-24 23:00:00 16.2 9 Sudeste 26 Sudeste 0 1021.5 0.7 61
2021-02-24 22:00:00 17 18 Sudeste 41 Sudeste 0 1021.2 -- 58
2021-02-24 21:00:00 17.6 30 Sudeste 45 Sudeste 0 1020.7 -- 55
2021-02-24 20:00:00 18.2 27 Sudeste 39 Sudeste 0 1020.8 0.7 54
2021-02-24 19:00:00 19 23 Sudeste 37 Sudeste 0 1020.4 -- 53
2021-02-24 18:00:00 20.2 24 Sudeste 37 Sudeste 0 1020.1 -- 49
2021-02-24 17:00:00 21.2 24 Sudeste 35 Sudeste 0 1020.1 -- 46
2021-02-24 16:00:00 21.6 18 Sudeste 28 Este 0 1020.2 -- 47
2021-02-24 15:00:00 21.7 15 Este 42 Sudoeste 0 1020.9 -- 46
2021-02-24 14:00:00 20.9 15 Sur 39 Sudoeste 0 1021.8 -- 43
2021-02-24 13:00:00 19.6 22 Sur 46 Sur 0 1022.9 -- 42
2021-02-24 12:00:00 18.1 32 Sur 54 Sur 0 1023.5 -- 44
2021-02-24 11:00:00 16.7 35 Sur 54 Sur 0 1024.2 -- 48
2021-02-24 10:00:00 15.2 28 Sudeste 46 Sudeste 0 1024.6 -0.2 53
2021-02-24 09:00:00 14 26 Sudeste 46 Sur 0 1024.9 -- 57
2021-02-24 08:00:00 13.4 23 Sudeste 42 Sur 0 1024.7 0.6 60
2021-02-24 07:00:00 13.7 19 Sudeste 35 Sudeste 0 1024.8 -- 58
2021-02-24 06:00:00 13.9 18 Sudeste 37 Sudeste 0 1024.6 -0.4 57
2021-02-24 05:00:00 14 21 Sudeste 35 Sudeste 0 1024.1 -- 56
2021-02-24 04:00:00 14.4 21 Sudeste 33 Sudeste 0 1024.4 -- 55
2021-02-24 03:00:00 14.4 23 Sudeste 33 Sudeste 0 1025 -- 56
2021-02-24 02:00:00 13.3 9 Sudeste 24 Sudeste 0 1025.5 -- 63
2021-02-24 01:00:00 13.6 18 Sudeste 32 Sudeste 0 1025.9 -- 62
2021-02-24 00:00:00 14.1 17 Sudeste 28 Sudeste 0 1026 -- 59
2021-02-23 23:00:00 13.7 10 Sudeste 15 Sudeste 0 1026.3 -- 60
2021-02-23 22:00:00 14.3 6 Sudeste 26 Sudeste 0 1026.1 -- 57
2021-02-23 21:00:00 15.1 18 Sudeste 30 Sudeste 0 1025.5 1.5 55
2021-02-23 20:00:00 15.7 18 Sudeste 28 Sudeste 0 1025.3 -- 53
2021-02-23 19:00:00 17.1 17 Sudeste 35 Este 0 1024.5 0.8 49
2021-02-23 18:00:00 19.6 13 Sur 45 Sur 0 1024 -- 41
2021-02-23 17:00:00 19.9 22 Sur 45 Sudeste 0 1023.8 -- 40
2021-02-23 16:00:00 19.8 21 Sur 58 Sudeste 0 1023.7 -- 39
2021-02-23 15:00:00 19.1 26 Sur 54 Sur 0 1023.7 -- 40
2021-02-23 14:00:00 18.4 27 Sudeste 54 Sur 0 1023.6 -- 41
2021-02-23 13:00:00 17.1 31 Sur 61 Sur 0 1024.2 -- 44
2021-02-23 12:00:00 15.7 35 Sur 59 Sur 0 1024.6 -- 47
2021-02-23 11:00:00 14.6 33 Sur 63 Sur 0 1024.4 -- 49
2021-02-23 10:00:00 13 16 Sur 37 Sudeste 0 1023.9 -- 57
2021-02-23 09:00:00 10.8 15 Sudeste 28 Este 0 1023.6 -- 67
2021-02-23 08:00:00 9.4 13 Sudeste 30 Sudeste 0 1023.1 -- 71
2021-02-23 07:00:00 9.5 17 Sudeste 28 Sur 0 1022.8 -- 72
2021-02-23 06:00:00 8.8 15 Sudeste 30 Sudeste 0 1022.5 -- 77
2021-02-23 05:00:00 8.1 18 Este 24 Sudeste 0 1022.3 -- 82
2021-02-23 04:00:00 7.7 13 Sudeste 28 Este 0 1021.8 0.1 84
2021-02-23 03:00:00 7.8 18 Este 24 Este 0 1021.8 -- 85
2021-02-23 02:00:00 7.3 8 Este 22 Este 0 1022 -- 89
2021-02-23 01:00:00 7.9 4 Este 18 Este 0 1021.7 -- 88
2021-02-23 00:00:00 8 10 Sudeste 21 Este 0 1021.2 0.7 88
2021-02-22 23:00:00 8 12 Sudeste 17 Este 0 1021.3 -- 94
2021-02-22 22:00:00 8.3 9 Este 15 Este 0 1020.9 -- 94
2021-02-22 21:00:00 9.4 5 Este 17 Este 0 1020.5 -- 90
2021-02-22 20:00:00 10.4 9 Este 13 Este 0 1020.3 -- 84
2021-02-22 19:00:00 11.6 5 Nordeste 9 Noroeste 0 1019.5 -- 75
2021-02-22 18:00:00 12.1 0 Calma 11 Noroeste 0 1018.5 -- 68
2021-02-22 17:00:00 12.1 7 Noroeste 17 Noroeste 0 1017.8 -- 72
2021-02-22 16:00:00 12.1 12 Noroeste 28 Noroeste 0 1016.9 -- 72
2021-02-22 15:00:00 12.1 19 Noroeste 32 Oeste 0 1016.2 -- 74
2021-02-22 14:00:00 12 19 Noroeste 35 Oeste 0 1015.8 -- 75
2021-02-22 13:00:00 11.4 16 Oeste 28 Noroeste 0 1015.8 -- 81
2021-02-22 12:00:00 10.4 12 Oeste 24 Oeste 0.1 1015.4 -- 86
2021-02-22 11:00:00 9.3 0 Calma 9 Nordeste 1.6 1014.8 -- 94
2021-02-22 10:00:00 9.2 8 Oeste 21 Oeste 0.3 1013.7 3.2 93
2021-02-22 09:00:00 8.7 11 Oeste 17 Oeste 1.1 1012.5 -- 94
2021-02-22 08:00:00 8.6 5 Sudoeste 17 Oeste 0.4 1011.2 -- 93
2021-02-22 07:00:00 8 5 Oeste 15 Oeste 1.1 1010.5 1.7 93
2021-02-22 06:00:00 8.2 9 Oeste 28 Oeste 1.9 1009.8 -- 92
2021-02-22 05:00:00 7.8 7 Oeste 13 Oeste 2 1009.4 -- 94
2021-02-22 04:00:00 7.5 4 Oeste 11 Sudoeste 1.3 1008.8 -- 92
2021-02-22 03:00:00 7.8 8 Oeste 13 Noroeste 2.3 1008.8 -- 93
2021-02-22 02:00:00 8 7 Oeste 21 Oeste 1.4 1008.3 -- 91
2021-02-22 01:00:00 7.8 9 Oeste 21 Oeste 1.4 1007.9 -- 90
2021-02-22 00:00:00 7.8 9 Oeste 26 Oeste 2.7 1007.5 -- 88
2021-02-21 23:00:00 8.1 11 Oeste 28 Noroeste 3.7 1006.7 -- 94
2021-02-21 22:00:00 8.6 17 Oeste 30 Oeste 3.4 1006 2.5 94
2021-02-21 21:00:00 9 14 Oeste 30 Noroeste 2.2 1005.3 -- 94
2021-02-21 20:00:00 9.6 10 Noroeste 32 Noroeste 1.8 1004.4 2.9 94
2021-02-21 19:00:00 10.3 14 Noroeste 39 Noroeste 1.2 1003.5 -- 93
2021-02-21 18:00:00 15.1 15 Oeste 42 Noroeste 0 1002.2 -- 63
2021-02-21 17:00:00 16 22 Sudeste 41 Sudeste 0 1001.5 -- 55
2021-02-21 16:00:00 16.1 13 Sudeste 41 Sur 0 1001.3 -- 53
2021-02-21 15:00:00 16.8 20 Sudeste 46 Sudeste 0 1000.7 -- 47
2021-02-21 14:00:00 17.9 21 Sur 48 Sudeste 0 1000.5 -- 42
2021-02-21 13:00:00 17.4 31 Sudeste 59 Este 0 1001.2 -- 43
2021-02-21 12:00:00 16.7 41 Sudeste 78 Sudeste 2.2 1001.6 -- 43
2021-02-21 11:00:00 15.6 49 Sudeste 78 Sudeste 0 1001.1 -- 45
2021-02-21 10:00:00 14.6 45 Sudeste 74 Sudeste 1.2 1000.8 -- 49
2021-02-21 09:00:00 14.3 51 Sudeste 84 Sudeste 4 1000.4 -- 49
2021-02-21 08:00:00 14.4 48 Sudeste 84 Sudeste 1.5 1000.1 -- 48
2021-02-21 07:00:00 14.2 39 Sudeste 71 Este 0 1000.2 -- 49
2021-02-21 06:00:00 14.9 46 Sudeste 80 Sudeste 7.5 999.9 -- 46
2021-02-21 05:00:00 15.1 46 Sudeste 65 Sudeste 0.8 999.9 -- 46
2021-02-21 04:00:00 15.5 36 Sudeste 54 Sudeste 0 1001.1 -- 46
2021-02-21 03:00:00 15.9 25 Sudeste 48 Sudeste 0 1001.9 -- 46
2021-02-21 02:00:00 16.7 20 Sudeste 42 Sudeste 0 1001.7 -- 43
2021-02-21 01:00:00 17.3 29 Sudeste 59 Este 0 1001.3 -- 42
2021-02-21 00:00:00 17.5 33 Sudeste 54 Este 0 1001.5 -0.5 43
2021-02-20 23:00:00 17.8 29 Sudeste 45 Sudeste 0 1002 -- 44
2021-02-20 22:00:00 18.8 23 Este 45 Sudeste 0 1002.1 -- 41
2021-02-20 21:00:00 18.9 25 Sudeste 41 Este 0 1002 -- 41
2021-02-20 20:00:00 19 23 Sudeste 35 Este 0 1002.2 1 41
2021-02-20 19:00:00 19.8 17 Sudeste 37 Sudeste 0 1001.9 -- 36
2021-02-20 18:00:00 21.4 24 Sudeste 39 Sudeste 0 1001.1 -- 31
2021-02-20 17:00:00 21 17 Este 37 Sudeste 0 1001.2 -- 34
2021-02-20 16:00:00 21.7 23 Sudeste 50 Este 0 1001.1 -1.9 31
2021-02-20 15:00:00 21.3 24 Sudeste 45 Sudeste 0 1001.5 -- 34
2021-02-20 14:00:00 21.6 25 Este 52 Sudeste 0 1002.3 -- 35
2021-02-20 13:00:00 20.1 28 Sudeste 46 Sudeste 0 1003 -- 35
2021-02-20 12:00:00 19.8 23 Sudeste 50 Sudeste 0 1003.4 -- 34
2021-02-20 11:00:00 18 22 Sudeste 52 Este 0 1003.7 -- 37
2021-02-20 10:00:00 16.8 30 Sudeste 50 Sudeste 0 1003.5 -- 38
2021-02-20 09:00:00 16.6 27 Sudeste 42 Sudeste 0 1003.6 0.6 37
2021-02-20 08:00:00 16.5 27 Sudeste 41 Sudeste 0 1003 -- 37
2021-02-20 07:00:00 18.2 13 Sudeste 45 Este 0 1002.5 -- 28
2021-02-20 06:00:00 19.3 9 Sudeste 30 Sur 0 1003 -1 27
2021-02-20 05:00:00 20.2 17 Sur 41 Sur 0 1003.3 -- 23
2021-02-20 04:00:00 20.5 21 Sur 41 Sur 0 1003.5 -1.6 22
2021-02-20 03:00:00 20 12 Sur 52 Este 0 1004 -- 24
2021-02-20 02:00:00 20 20 Sudeste 55 Sur 0 1004.6 -- 25
2021-02-20 01:00:00 20.9 25 Sur 65 Sudeste 0 1005.1 -- 23
2021-02-20 00:00:00 20.5 19 Sudeste 41 Sur 0 1005 -- 25
2021-02-19 23:00:00 20.7 24 Sur 52 Sur 0 1005.6 -0.8 27
2021-02-19 22:00:00 20.5 14 Sudeste 37 Sur 0 1005.9 -- 31
2021-02-19 21:00:00 21.1 22 Sur 52 Sur 0 1005.9 -- 29
2021-02-19 20:00:00 21.4 20 Sur 39 Sudeste 0 1006.4 -- 29
2021-02-19 19:00:00 21.2 18 Sur 32 Sur 0 1006.4 -- 28
2021-02-19 18:00:00 21.6 14 Sur 50 Sur 0 1006.8 -- 25
2021-02-19 17:00:00 21.5 10 Sur 45 Sur 0 1006.7 -0.9 26
2021-02-19 16:00:00 21.3 32 Sur 58 Sudeste 0 1006.6 -- 24
2021-02-19 15:00:00 21 23 Sudeste 59 Sur 0 1007.2 -- 32
2021-02-19 14:00:00 20.8 17 Sur 54 Sudeste 0 1007.6 -- 37
2021-02-19 13:00:00 19.3 25 Sudeste 42 Sur 0 1008.3 -- 39
2021-02-19 12:00:00 19.3 17 Sur 59 Sur 0 1008.8 -0.3 36
2021-02-19 11:00:00 19.1 20 Sur 55 Sur 0 1009 -- 42
2021-02-19 10:00:00 18.1 24 Sur 58 Sur 0 1008.6 -- 43
2021-02-19 09:00:00 16.8 19 Sur 52 Sur 0 1009.1 -- 47
2021-02-19 08:00:00 16.6 15 Sur 35 Sur 0 1008.8 -- 49
2021-02-19 07:00:00 15.4 9 Sur 41 Sur 0 1009 -- 57
2021-02-19 06:00:00 16.3 13 Sur 35 Sur 0 1008.9 -- 54
2021-02-19 05:00:00 16 10 Sur 35 Sur 0 1009 -- 55
2021-02-19 04:00:00 15.8 14 Sur 37 Sudoeste 0 1009.3 -- 56
2021-02-19 03:00:00 8.7 6 Nordeste 15 Nordeste 0 1009.6 -- 91
2021-02-19 02:00:00 9 5 Nordeste 18 Este 0 1009.8 -- 91
2021-02-19 01:00:00 8.9 9 Sudeste 11 Este 0 1010.8 -- 92
2021-02-19 00:00:00 9.2 0 Calma 13 Sudeste 0 1011.4 -- 91
2021-02-18 23:00:00 9.1 8 Nordeste 17 Nordeste 0 1011.8 -- 92
2021-02-18 22:00:00 8.5 4 Este 8 Nordeste 0 1012.7 -- 96
2021-02-18 21:00:00 9.4 0 Calma 9 Nordeste 0 1013 -- 95
2021-02-18 20:00:00 10.3 5 Norte 15 Norte 0 1013 -- 94
2021-02-18 19:00:00 10.8 5 Sudeste 8 Sudeste 0.4 1012.5 0.7 89
2021-02-18 18:00:00 11.4 0 Calma 13 Oeste 0 1012.3 -- 80
2021-02-18 17:00:00 11.6 7 Oeste 21 Noroeste 0 1012.1 -- 80
2021-02-18 16:00:00 11.9 13 Noroeste 24 Noroeste 0 1011.8 -- 78
2021-02-18 15:00:00 12.3 14 Noroeste 24 Noroeste 0 1011.3 -- 81
2021-02-18 14:00:00 12.3 14 Noroeste 28 Noroeste 0 1011.2 -- 80
2021-02-18 13:00:00 13.3 14 Noroeste 26 Noroeste 0 1010.8 -- 78
2021-02-18 12:00:00 13.8 14 Oeste 33 Noroeste 0 1010.2 -- 77
2021-02-18 11:00:00 17.9 24 Oeste 41 Noroeste 0 1009.3 -- 49
2021-02-18 10:00:00 17 12 Sur 30 Sudeste 0 1007.8 -- 44
2021-02-18 09:00:00 16.6 13 Sur 24 Sur 0 1007.3 -- 45
2021-02-18 08:00:00 16.5 12 Sudeste 30 Sur 0 1006.9 -- 45
2021-02-18 07:00:00 17.2 14 Sur 41 Sudeste 0 1006.7 -- 43
2021-02-18 06:00:00 17 18 Sur 42 Sur 0 1006.7 -- 43
2021-02-18 05:00:00 17.2 21 Sudeste 39 Sudeste 0 1006.9 -- 44
2021-02-18 04:00:00 17.6 20 Sudeste 41 Sur 0 1007.7 -- 45
2021-02-18 03:00:00 17.7 18 Sur 42 Sudeste 0 1008.1 -- 46
2021-02-18 02:00:00 18.5 10 Sur 37 Sur 0 1008.6 -- 44
2021-02-18 01:00:00 19.2 18 Sur 46 Sur 0 1008.6 -- 39
2021-02-18 00:00:00 18.1 13 Sur 24 Sur 0 1008.6 -- 47
2021-02-17 23:00:00 17.2 17 Sudeste 28 Sur 0 1009.4 -1.5 53
2021-02-17 22:00:00 17.2 20 Este 32 Sudeste 0 1009.7 -- 55
2021-02-17 21:00:00 18.3 14 Sudeste 30 Sur 0 1010.1 -- 50
2021-02-17 20:00:00 18.8 10 Sur 39 Sur 0 1010.9 -- 47
2021-02-17 19:00:00 19.4 19 Sur 42 Sur 0 1010.7 -- 44
2021-02-17 18:00:00 19.5 14 Sur 42 Sur 0 1010.7 -- 43
2021-02-17 17:00:00 19.7 8 Sur 41 Sudoeste 0 1011.6 -- 41
2021-02-17 16:00:00 19.8 20 Sur 45 Sur 0 1012.1 -- 40
2021-02-17 15:00:00 20.1 28 Sudoeste 46 Sur 0 1012.8 -- 39
2021-02-17 14:00:00 20 22 Sur 55 Sudoeste 0.2 1013.8 -- 40
2021-02-17 13:00:00 19.7 20 Sur 41 Sudoeste 0 1014.8 -- 41
2021-02-17 12:00:00 18.2 12 Oeste 28 Sudoeste 0 1015.4 -- 47
2021-02-17 11:00:00 16.5 6 Norte 11 Norte 0 1016.3 -- 57
2021-02-17 10:00:00 12.9 3 Sur 8 Sur 0 1016.8 -- 78
2021-02-17 09:00:00 9.5 6 Norte 17 Nordeste 0 1016.7 -- 85
2021-02-17 08:00:00 7.3 9 Sur 13 Sur 0 1016.5 -- 95
2021-02-17 07:00:00 7.5 8 Este 13 Este 0 1016.7 -- 94
2021-02-17 06:00:00 7.2 9 Este 11 Este 0 1017.3 -- 97
2021-02-17 05:00:00 6.9 7 Este 11 Sudeste 0 1017.5 -- 98
2021-02-17 04:00:00 6.8 7 Este 9 Este 0 1017.8 -- 98
2021-02-17 03:00:00 7.1 6 Este 9 Este 0 1018.3 -- 98
2021-02-17 02:00:00 7.5 6 Este 9 Sudeste 0 1018.7 -- 97
2021-02-17 01:00:00 8.3 7 Este 11 Este 0 1019.1 -- 97
2021-02-17 00:00:00 8.9 6 Sudeste 8 Sudeste 0 1019.5 -- 96
2021-02-16 23:00:00 9.5 4 Sudeste 8 Sudeste 0 1019.4 -- 93
2021-02-16 22:00:00 10.5 4 Este 13 Este 0 1019.4 -- 91
2021-02-16 21:00:00 11.3 7 Sudeste 11 Sudeste 0 1019.3 -- 88
2021-02-16 20:00:00 12.4 6 Este 9 Este 0.1 1019.5 -- 79
2021-02-16 19:00:00 12.6 7 Este 13 Este 0 1019.1 -- 76
2021-02-16 18:00:00 13.3 9 Este 15 Sudeste 0 1019 -- 74
2021-02-16 17:00:00 13.4 11 Sudeste 15 Este 0 1019 -0.1 74
2021-02-16 16:00:00 13.3 8 Sudeste 15 Norte 0 1019.3 -- 73
2021-02-16 15:00:00 13.7 9 Noroeste 30 Noroeste 0 1019.3 -- 70
2021-02-16 14:00:00 14.2 24 Noroeste 58 Noroeste 0 1019.1 -- 69
2021-02-16 13:00:00 16.4 32 Noroeste 58 Sudoeste 0 1018.9 -- 61
2021-02-16 12:00:00 18.1 24 Sudoeste 42 Sur 0 1017.4 -- 42
2021-02-16 11:00:00 15.6 14 Sur 37 Sur 0 1016.5 -- 48
2021-02-16 10:00:00 14.7 11 Sudeste 37 Sudeste 0 1017.1 -- 52
2021-02-16 09:00:00 14.3 14 Sudeste 32 Sudeste 0 1016.3 -- 50
2021-02-16 08:00:00 14.5 16 Sudeste 37 Sudeste 0 1015.7 -- 49
2021-02-16 07:00:00 13.3 20 Sudeste 35 Sudeste 0 1015.8 -- 56
2021-02-16 06:00:00 13.7 18 Sudeste 39 Sur 0 1016.4 -- 54
2021-02-16 05:00:00 14.1 18 Sudeste 55 Sur 0 1017 -- 54
2021-02-16 04:00:00 13.9 20 Sudeste 46 Sudeste 0 1017.4 -- 57
2021-02-16 03:00:00 13.7 14 Sudeste 50 Sudeste 0 1017.9 -- 59
2021-02-16 02:00:00 14.5 22 Sudeste 58 Sudeste 0 1018.4 -- 55
2021-02-16 01:00:00 14.3 28 Sudeste 50 Sudeste 0 1018.7 -- 57
2021-02-16 00:00:00 14.8 20 Sudeste 58 Sudeste 0 1019.2 -- 54
2021-02-15 23:00:00 14.4 36 Sudeste 68 Sur 0 1018.8 -- 56
2021-02-15 22:00:00 13.5 21 Sudeste 59 Sur 0 1019.2 -- 61
2021-02-15 21:00:00 13.1 25 Sudeste 45 Sudeste 0 1019.8 -- 62
2021-02-15 20:00:00 13.3 23 Sudeste 48 Sur 0 1020.3 -- 61
2021-02-15 19:00:00 13.9 25 Sudeste 58 Sur 0 1020.2 -- 58
2021-02-15 18:00:00 15.6 32 Sur 54 Sur 0 1020.2 -- 52
2021-02-15 17:00:00 17.5 31 Sur 58 Sur 0 1020.7 -- 45
2021-02-15 16:00:00 18.2 23 Sur 46 Sudeste 0 1020.8 -- 44
2021-02-15 15:00:00 17.7 26 Sur 46 Sur 0 1021.1 -- 46
2021-02-15 14:00:00 18.3 23 Sur 50 Sudeste 0 1022 -- 45
2021-02-15 13:00:00 16.1 19 Sur 48 Sur 0 1023.2 -- 51
2021-02-15 12:00:00 15 21 Sudeste 48 Sur 0 1023.7 -- 53
2021-02-15 11:00:00 14.3 22 Sur 55 Sur 0 1023.8 -- 55
2021-02-15 10:00:00 13.4 30 Sudeste 55 Sudeste 0 1023.6 -- 57
2021-02-15 09:00:00 12.9 27 Sudeste 48 Sur 0 1023.1 -- 59
2021-02-15 08:00:00 12.8 20 Sudeste 45 Sudeste 0 1022.5 -- 61
2021-02-15 07:00:00 12.7 19 Sudeste 42 Sudeste 0 1022.5 -- 61
2021-02-15 06:00:00 12.8 23 Sudeste 46 Sudeste 0 1022.8 -- 62
2021-02-15 05:00:00 13.1 16 Sudeste 54 Sur 0 1022.5 -- 61
2021-02-15 04:00:00 13.4 28 Sudeste 55 Sur 0 1022.5 -- 61
2021-02-15 03:00:00 14 29 Sur 61 Sur 0 1022.5 -- 59
2021-02-15 02:00:00 14.4 27 Sur 59 Sur 0 1022.5 -- 58
2021-02-15 01:00:00 14.7 30 Sur 55 Sur 0 1022 -- 58
2021-02-15 00:00:00 15 23 Sur 52 Sur 0 1021.7 -- 57
2021-02-14 23:00:00 15.4 26 Sur 50 Sur 0 1021.7 -- 56
2021-02-14 22:00:00 15.4 23 Sudeste 48 Sudeste 0 1021.2 -- 57
2021-02-14 21:00:00 16 26 Sudeste 55 Sur 0 1021 -- 55
2021-02-14 20:00:00 16.4 37 Sur 58 Sur 0 1021.1 -- 54
2021-02-14 19:00:00 16.7 26 Sur 54 Sur 0 1020.8 0.7 54
2021-02-14 18:00:00 17.6 21 Sur 45 Sur 0 1020.5 0.3 52
2021-02-14 17:00:00 18.4 19 Sudeste 41 Sur 0 1020.4 -- 50
2021-02-14 16:00:00 18.8 20 Sur 37 Sur 0 1020.1 -- 47
2021-02-14 15:00:00 18.8 24 Sur 58 Sur 0 1020.2 -- 46
2021-02-14 14:00:00 18.1 32 Sur 58 Sudoeste 0 1020.3 -- 48
2021-02-14 13:00:00 18.3 24 Sur 54 Sur 0 1020.9 -- 48
2021-02-14 12:00:00 17.2 29 Sur 50 Sur 0 1021 -- 53
2021-02-14 11:00:00 15.6 24 Sur 46 Sur 0 1021.1 -- 59
2021-02-14 10:00:00 12.4 22 Este 30 Este 0 1021.4 -- 71
2021-02-14 09:00:00 9.9 11 Este 17 Este 0 1021.4 -- 79
2021-02-14 08:00:00 7 2 Sudeste 13 Sudeste 0 1021.3 -- 89
2021-02-14 07:00:00 7.5 4 Este 13 Sudeste 0 1021.3 -- 88
2021-02-14 06:00:00 7.8 9 Sudeste 17 Sudeste 0 1021.6 -- 87
2021-02-14 05:00:00 7.1 11 Sudeste 18 Sudeste 0 1021.5 -- 92
2021-02-14 04:00:00 6.9 9 Este 13 Este 0 1021.8 -- 92
2021-02-14 03:00:00 7.2 5 Este 17 Este 0 1022.2 -- 93
2021-02-14 02:00:00 6.9 6 Este 17 Sudeste 0 1022.2 -- 93
2021-02-14 01:00:00 7.9 12 Sudeste 21 Sudeste 0 1022.5 -- 92
2021-02-14 00:00:00 8.3 4 Nordeste 8 Este 0 1022.7 -- 94
2021-02-13 23:00:00 8.1 7 Este 13 Este 0 1022.9 -- 94
2021-02-13 22:00:00 9 5 Este 8 Este 0 1023.2 -- 92
2021-02-13 21:00:00 9.7 7 Este 9 Este 0 1022.9 -- 88
2021-02-13 20:00:00 11.7 6 Este 9 Este 0 1022.4 -- 84
2021-02-13 19:00:00 13.2 4 Este 8 Este 0 1022.3 -- 76
2021-02-13 18:00:00 15.1 0 Calma 11 Nordeste 0 1022 -- 66
2021-02-13 17:00:00 16.9 0 Calma 8 Este 0 1021.7 -- 56
2021-02-13 16:00:00 15.6 3 Este 11 Este 0 1021.4 -- 63
2021-02-13 15:00:00 14.7 7 Este 11 Este 0 1021 -- 68
2021-02-13 14:00:00 13.5 5 Este 11 Sudeste 0 1021.5 -- 73
2021-02-13 13:00:00 13.1 3 Sur 13 Este 0 1022 -- 74
2021-02-13 08:00:00 6.6 8 Este 13 Este 0 1020.2 0.2 99
2021-02-13 07:00:00 6.6 8 Este -- -- 0 1020.2 0 99
2021-02-13 06:00:00 6.4 4 Este 8 Este 0 1020.3 -0.1 99
2021-02-13 05:00:00 6.6 3 Nordeste 9 Este 0 1020 -0.3 99
2021-02-13 04:00:00 6.6 7 Este 11 Este 0 1020.2 -0.2 99
2021-02-13 03:00:00 7.2 6 Este 11 Este 0 1020.4 0.2 99
2021-02-13 02:00:00 7.4 9 Este 11 Este 0 1020.3 0.1 98
2021-02-13 01:00:00 9.1 3 Sudeste 11 Este 0 1020.4 0.7 98
2021-02-13 00:00:00 9.7 7 Este 9 Este 0 1020.2 0.5 96
2021-02-12 23:00:00 10.6 4 Nordeste 8 Sur 0 1020.2 0.8 95
2021-02-12 22:00:00 10.4 3 Sudeste 9 Nordeste 0 1019.7 0.8 95
2021-02-12 21:00:00 11.4 0 Calma 13 Noroeste 0 1019.7 1.7 89
2021-02-12 20:00:00 11.8 13 Noroeste 26 Oeste 0 1019.4 2.2 88
2021-02-12 19:00:00 12.5 17 Oeste 33 Noroeste 0 1018.9 2.4 85
2021-02-12 18:00:00 12.6 26 Oeste 42 Noroeste 0 1018 2.3 87
2021-02-12 17:00:00 12.8 25 Noroeste 54 Oeste 0.1 1017.2 2.3 91
2021-02-12 16:00:00 12.8 35 Oeste 61 Oeste 0 1016.5 2.2 93
2021-02-12 15:00:00 12.7 36 Oeste 54 Oeste 3.3 1015.7 1.7 96
2021-02-12 14:00:00 12.8 33 Oeste 54 Noroeste 0.3 1014.9 1.9 90
2021-02-12 13:00:00 12.7 21 Oeste 46 Noroeste 0.9 1014.3 2.5 89
2021-02-12 12:00:00 13 30 Oeste 50 Oeste 0.6 1014 3.1 88
2021-02-12 11:00:00 12.9 26 Oeste 45 Noroeste 0.2 1013 2.7 87
2021-02-12 10:00:00 12.5 10 Noroeste 13 Noroeste 1.8 1011.8 2.3 98
2021-02-12 09:00:00 12.2 4 Este 8 Sudeste 0 1010.9 -- 98
2021-02-12 08:00:00 12.3 3 Oeste 11 Oeste 0 1010.3 -- 96
2021-02-12 07:00:00 12.5 8 Oeste 35 Oeste 0 1009.5 -- 96
2021-02-12 06:00:00 13.3 29 Oeste 46 Noroeste 0.7 1008.9 -- 90
2021-02-12 05:00:00 18.6 19 Sudoeste 45 Sudoeste 0 1006.8 -- 53
2021-02-12 04:00:00 18.3 13 Sudoeste 28 Sur 0 1006.8 -- 55
2021-02-12 03:00:00 18.1 10 Sur 22 Sur 0 1007.4 -- 56
2021-02-12 02:00:00 17.4 10 Sur 28 Sur 0 1007.5 -- 59
2021-02-12 01:00:00 14 8 Este 18 Este 0 1007.9 -- 73
2021-02-12 00:00:00 14.1 5 Norte 21 Sudeste 0 1008.6 -- 73
2021-02-11 23:00:00 13.3 12 Este 15 Este 0 1009.3 -- 77
2021-02-11 22:00:00 13.1 6 Este 13 Sudeste 0 1009.7 -- 77
2021-02-11 21:00:00 14.4 4 Este 11 Oeste 0 1010.2 -- 71
2021-02-11 20:00:00 15.8 4 Sudeste 9 Sudeste 0 1010.4 -- 65
2021-02-11 19:00:00 16 8 Este 13 Sur 0 1010.2 -- 64
2021-02-11 18:00:00 18.6 10 Sudeste 33 Sudoeste 0 1010.1 -- 53
2021-02-11 17:00:00 19.5 17 Sudoeste 30 Sudoeste 0 1010.3 -- 52
2021-02-11 16:00:00 20 11 Sudoeste 26 Sur 0 1010.1 -- 50
2021-02-11 15:00:00 19.3 6 Sudoeste 21 Sudoeste 0 1010.3 -- 51
2021-02-11 14:00:00 19.2 13 Sur 24 Sudoeste 0 1010.6 -- 51
2021-02-11 13:00:00 19 9 Sudoeste 26 Sur 0 1010.9 -- 50
2021-02-11 12:00:00 17.3 9 Sur 22 Sur 0 1010.9 -- 55
2021-02-11 11:00:00 15 10 Este 21 Sudeste 0 1011.1 -- 62
2021-02-11 10:00:00 12.8 6 Este 17 Este 0 1010.8 -- 66
2021-02-11 09:00:00 10.8 8 Este 15 Este 0 1010.8 -- 70
2021-02-11 08:00:00 8.7 8 Este 13 Este 0 1010.7 -- 80
2021-02-11 07:00:00 7.2 6 Este 15 Este 0 1010.8 -- 86
2021-02-11 06:00:00 6.3 10 Este 18 Sudeste 0 1010.8 -- 91
2021-02-11 05:00:00 5.2 12 Este 17 Este 0 1010.9 -- 94
2021-02-11 04:00:00 5.9 5 Este 18 Sudeste 0 1011.1 -- 94
2021-02-11 03:00:00 6 6 Este 13 Este 0 1011.3 -- 94
2021-02-11 02:00:00 6.5 8 Sudeste 11 Este 0 1011.7 -- 92
2021-02-11 01:00:00 6.7 8 Este 13 Sudeste 0 1011.6 -- 93
2021-02-11 00:00:00 7.4 7 Este -- -- 0 1011.7 -- 92
2021-02-10 23:00:00 8.6 6 Este 11 Este 0 1011.6 -- 89
2021-02-10 22:00:00 9.3 7 Este 9 Este 0 1011.3 -- 87
2021-02-10 21:00:00 9.7 6 Este 9 Sudeste 0 1011 -- 84
2021-02-10 20:00:00 10.2 5 Oeste 17 Noroeste 0 1010.8 -- 82
2021-02-10 19:00:00 11.5 9 Oeste 37 Noroeste 0 1010 -- 71
2021-02-10 18:00:00 12.3 22 Noroeste 39 Noroeste 0 1008.7 -- 69
2021-02-10 17:00:00 12.3 26 Noroeste 41 Noroeste 0 1008.2 -- 75
2021-02-10 16:00:00 13.2 25 Noroeste 35 Noroeste 0 1007.8 -- 62
2021-02-10 15:00:00 12.8 27 Oeste 48 Noroeste 0 1007.1 -- 59
2021-02-10 14:00:00 12.6 28 Oeste 41 Noroeste 0 1006.5 -- 59
2021-02-10 13:00:00 12 26 Oeste 42 Oeste 0 1005.7 -- 64
2021-02-10 12:00:00 11.4 18 Oeste 41 Oeste 0 1004.8 -- 64
2021-02-10 11:00:00 11 18 Oeste 33 Oeste 0 1003.4 -- 62
2021-02-10 10:00:00 9 2 Norte 9 Nordeste 0 1002.2 -- 85
2021-02-10 09:00:00 9.1 5 Oeste 18 Oeste 0 1000.9 -- 73
2021-02-10 08:00:00 8.4 6 Noroeste 22 Oeste 0 999.6 -- 86
2021-02-10 07:00:00 8.4 8 Oeste 11 Oeste 0 998 -- 79
2021-02-10 06:00:00 8.7 6 Oeste 11 Oeste 0 996.3 -- 71
2021-02-10 05:00:00 8.6 7 Sudeste 11 Este 0 995.1 -- 71
2021-02-10 04:00:00 9.7 6 Noroeste 21 Oeste 0 994.6 -- 60
2021-02-10 03:00:00 10.8 6 Sudoeste 30 Oeste 0 994.4 -- 54
2021-02-10 02:00:00 11.3 15 Sudoeste 35 Sudoeste 0 994.6 -- 52
2021-02-10 01:00:00 11.5 14 Sudoeste 33 Sudoeste 0 994.3 -- 53
2021-02-10 00:00:00 11.8 12 Sudoeste 33 Oeste 0 994.4 -- 54
2021-02-09 23:00:00 12.5 17 Sudoeste 35 Sudoeste 0 994.2 -- 50
2021-02-09 22:00:00 12.8 11 Sudoeste 33 Sur 0 993.9 -- 49
2021-02-09 21:00:00 12.8 12 Sudoeste 33 Sudoeste 0 993.8 -- 48
2021-02-09 20:00:00 12.8 16 Sudoeste 37 Oeste 0 993.9 -- 48
2021-02-09 19:00:00 13 14 Sudoeste 41 Sudoeste 0 993.6 -- 46
2021-02-09 18:00:00 14 27 Sudoeste 48 Sudoeste 0 992.8 -- 44
2021-02-09 17:00:00 14.8 28 Sudoeste 59 Sudoeste 0 991.3 -- 41
2021-02-09 16:00:00 13.5 8 Sur 22 Sur 0 990.9 -- 55
2021-02-09 15:00:00 12.1 6 Sudeste 26 Norte 0 991.1 -- 79
2021-02-09 14:00:00 13.7 12 Noroeste 50 Sur 0 991.8 -- 69
2021-02-09 13:00:00 15.9 30 Sudoeste 58 Sudoeste 0 991.5 -- 50
2021-02-09 12:00:00 15.8 29 Sur 58 Sur 0 991.5 -- 49
2021-02-09 11:00:00 14.7 14 Sur 37 Sudeste 0 991.5 -- 52
2021-02-09 10:00:00 13.9 8 Este 42 Sur 0 992.5 -- 53
2021-02-09 09:00:00 12.3 8 Sudeste 28 Sudeste 0 992.9 -- 57
2021-02-09 08:00:00 12.1 11 Este 41 Sudeste 0 994.1 -- 57
2021-02-09 07:00:00 12.2 15 Sur 46 Sur 0 995.3 -- 59
2021-02-09 06:00:00 12.6 17 Sur 35 Sur 0 996.5 -- 58
2021-02-09 05:00:00 12.8 12 Sur 26 Sudoeste 0 996.6 -- 57
2021-02-09 04:00:00 11.5 8 Sur 26 Sudeste 0 997.3 -- 63
2021-02-09 03:00:00 10 6 Sudeste 18 Sur 0 998.1 -- 71
2021-02-09 02:00:00 9.3 4 Este 11 Este 0 998.4 -- 84
2021-02-09 01:00:00 9.1 8 Este 11 Nordeste 0 998.6 -- 88
2021-02-09 00:00:00 8.9 4 Sudeste 11 Este 0 998.5 -- 89
2021-02-08 23:00:00 9.9 4 Nordeste 8 Norte 0 998.6 -- 86
2021-02-08 22:00:00 11.5 5 Oeste 13 Oeste 0 998.1 -- 73
2021-02-08 21:00:00 11.9 10 Oeste 21 Oeste 0 998 -- 73
2021-02-08 20:00:00 11.6 13 Oeste 30 Oeste 0 997.5 -- 74
2021-02-08 19:00:00 11.6 14 Oeste 35 Noroeste 0 996.7 -- 76
2021-02-08 18:00:00 12.3 21 Noroeste 41 Noroeste 0 995.6 -- 66
2021-02-08 17:00:00 13.4 25 Noroeste 37 Noroeste 0 994.9 -- 63
2021-02-08 16:00:00 13.8 20 Noroeste 35 Noroeste 0 994.1 -- 64
2021-02-08 15:00:00 12.9 16 Noroeste 30 Noroeste 0 993.9 -- 65
2021-02-08 14:00:00 14 11 Norte 17 Noroeste 0 993.7 -- 61
2021-02-08 13:00:00 14.8 6 Sudoeste 24 Sudoeste 0 994.1 -- 58
2021-02-08 12:00:00 12.8 3 Este 13 Este 0 994.8 -- 75
2021-02-08 11:00:00 10.4 5 Este 13 Sudeste 0 994.6 -- 93
2021-02-08 10:00:00 9.9 6 Este 9 Sudeste 0 994 -- 92
2021-02-08 09:00:00 9.9 8 Nordeste 13 Sudoeste 0.4 993.5 -- 88
2021-02-08 08:00:00 11.8 7 Oeste 17 Oeste 0 993 -- 67
2021-02-08 07:00:00 11.7 3 Este 24 Sur 0 992.7 -- 68
2021-02-08 06:00:00 11.7 9 Sur 26 Norte 0 992.5 -- 67
2021-02-08 05:00:00 11.6 7 Sur 42 Sur 0 992.8 -- 68
2021-02-08 04:00:00 12.4 15 Sur 39 Sudoeste 0 993.1 -- 61
2021-02-08 03:00:00 11.9 17 Sur 39 Sur 0 993.7 -- 63
2021-02-08 02:00:00 11.7 9 Sur 42 Sur 0 994.3 -- 63
2021-02-08 01:00:00 11.7 20 Sur 42 Sur 0 995.2 -- 61
2021-02-08 00:00:00 12 28 Sur 50 Sur 0 995.6 -- 58
2021-02-07 23:00:00 10.5 8 Sur 28 Sur 0 996.1 -- 67
2021-02-07 22:00:00 9.3 9 Sudeste 18 Sudeste 0 997.2 -- 77
2021-02-07 21:00:00 8.9 4 Sur 15 Sur 0.1 998.2 -- 82
2021-02-07 20:00:00 8.8 6 Este 9 Este 0 998.7 -- 84
2021-02-07 19:00:00 9.6 3 Este 8 Este 0 999.2 -- 69
2021-02-07 18:00:00 10.1 5 Nordeste 11 Nordeste 0 999.4 -- 67
2021-02-07 17:00:00 10.5 8 Noroeste 30 Noroeste 0 1000 -- 65
2021-02-07 16:00:00 11 11 Noroeste 24 Oeste 0 1000.5 -- 61
2021-02-07 15:00:00 12.2 11 Sudoeste 22 Oeste 0 1000.8 -- 50
2021-02-07 14:00:00 12 9 Oeste 24 Sudoeste 0.1 1001.6 -- 53
2021-02-07 13:00:00 11.2 13 Sudoeste 21 Sudoeste 0 1002.8 -- 56
2021-02-07 12:00:00 10.5 10 Sudoeste 17 Sudoeste 0 1003.6 -- 60
2021-02-07 11:00:00 8.8 10 Oeste 18 Sudoeste 0 1003.9 -- 70
2021-02-07 10:00:00 6.5 3 Este 8 Este 0 1003.9 -- 96
2021-02-07 09:00:00 5.4 7 Nordeste 9 Este 0 1004.1 -- 98
2021-02-07 08:00:00 4.9 5 Este 8 Este 0 1004.1 -- 98
2021-02-07 07:00:00 5.6 6 Nordeste 8 Nordeste 0 1004 -- 98
2021-02-07 06:00:00 6.3 5 Este 9 Este 0 1004.2 -- 98
2021-02-07 05:00:00 6.3 7 Este 9 Este 0 1004.3 -- 98
2021-02-07 04:00:00 6.3 5 Nordeste 9 Este 0 1004.7 -- 97
2021-02-07 03:00:00 6.1 5 Sudeste 9 Sudeste 0 1005.1 -- 97
2021-02-07 02:00:00 6.2 6 Este 9 Este 0 1005.1 -- 95
2021-02-07 01:00:00 7.1 3 Sudoeste 13 Oeste 0.3 1005.1 -- 86
2021-02-07 00:00:00 7.7 9 Oeste 18 Noroeste 0 1005.2 -- 80
2021-02-06 23:00:00 7.6 11 Noroeste 28 Noroeste 0 1005.2 -- 78
2021-02-06 22:00:00 7.9 14 Oeste 28 Noroeste 0 1004.9 -- 75
2021-02-06 21:00:00 8.2 6 Sudoeste 28 Noroeste 0 1004.1 -- 85
2021-02-06 20:00:00 8.7 25 Noroeste 42 Noroeste 0.2 1003.9 -- 76
2021-02-06 19:00:00 8.5 6 Oeste 17 Noroeste 0.4 1003.1 -- 89
2021-02-06 18:00:00 8.9 10 Noroeste 21 Noroeste 0.5 1002.4 -- 85
2021-02-06 17:00:00 9 7 Oeste 22 Noroeste 0.7 1001.8 -- 92
2021-02-06 16:00:00 9.2 14 Noroeste 30 Noroeste 1.1 1001.4 -- 90
2021-02-06 15:00:00 9.2 19 Noroeste 54 Noroeste 1.1 1001.1 -- 89
2021-02-06 14:00:00 9.8 25 Noroeste 41 Noroeste 2.4 1000.5 -- 92
2021-02-06 13:00:00 9.3 28 Noroeste 48 Noroeste 4.6 1000.3 -- 94
2021-02-06 12:00:00 10 27 Noroeste 52 Noroeste 4.6 999.4 -- 94
2021-02-06 11:00:00 10.5 31 Noroeste 50 Noroeste 5.9 998.2 -- 96
2021-02-06 10:00:00 11 18 Norte 28 Norte 4.5 997.4 -- 98
2021-02-06 09:00:00 11.1 5 Oeste 9 Oeste 2.2 997.2 -- 99
2021-02-06 08:00:00 11.1 8 Oeste 11 Oeste 1.6 997 -- 99
2021-02-06 07:00:00 10.9 6 Oeste 8 Oeste 2.3 997.1 -- 98
2021-02-06 06:00:00 11.2 3 Este 8 Este 3 997.3 -- 98
2021-02-06 05:00:00 11.2 3 Sur 5 Sur 0.4 997.5 -- 98
2021-02-06 04:00:00 11.2 0 Calma 11 Oeste 0.3 998.3 -- 98
2021-02-06 03:00:00 11.2 7 Noroeste 11 Noroeste 0 999 -- 97
2021-02-06 02:00:00 11.2 4 Oeste 11 Norte 0 1000 -- 97
2021-02-06 01:00:00 11.2 4 Nordeste 13 Sudoeste 0 1000.8 -- 97
2021-02-06 00:00:00 11.3 8 Oeste 13 Oeste 0 1001.4 -- 96
2021-02-05 23:00:00 11.3 0 Calma 15 Este 0 1001.4 -- 95
2021-02-05 22:00:00 11.3 8 Este 15 Este 0 1001 -- 94
2021-02-05 21:00:00 11.4 4 Nordeste 11 Nordeste 0 1001.7 -- 95
2021-02-05 20:00:00 11.3 4 Nordeste 9 Nordeste 0 1002.1 -- 95
2021-02-05 19:00:00 11.5 4 Norte 13 Este 0 1001.9 -- 94
2021-02-05 18:00:00 11.4 8 Nordeste 17 Norte 0 1001.8 -- 96
2021-02-05 17:00:00 11.6 13 Norte 22 Norte 0 1002 -- 97
2021-02-05 16:00:00 11.9 7 Oeste 11 Noroeste 0 1002 -- 97
2021-02-05 15:00:00 11.7 6 Oeste 9 Oeste 0 1002.8 -- 97
2021-02-05 14:00:00 11.8 5 Oeste 9 Noroeste 0 1003.7 -- 94
2021-02-05 13:00:00 11.7 0 Calma 5 Norte 0 1004.4 -- 93
2021-02-05 12:00:00 11.6 5 Oeste 8 Oeste 0 1005.4 -- 93
2021-02-05 11:00:00 11.2 3 Sudeste 9 Nordeste 0 1005.8 -- 96
2021-02-05 10:00:00 10.7 0 Calma 5 Este 0 1006 -- 98
2021-02-05 09:00:00 10.5 0 Calma 8 Norte 0 1006 -- 98
2021-02-05 08:00:00 10.3 9 Nordeste 17 Sudoeste 2.1 1005.7 -- 98
2021-02-05 07:00:00 10.4 5 Oeste 8 Noroeste 0.1 1005.6 -- 98
2021-02-05 06:00:00 10.4 0 Calma 8 Norte 0 1006.1 -- 97
2021-02-05 05:00:00 10.4 4 Noroeste 8 Noroeste 0 1006.3 -- 98
2021-02-05 04:00:00 10.4 4 Nordeste 5 Nordeste 0 1006.3 -- 98
2021-02-05 03:00:00 10.3 4 Nordeste 5 Este 0 1006.8 -- 97
2021-02-05 02:00:00 10.3 3 Este 5 Nordeste 0 1006.8 -- 97
2021-02-05 01:00:00 10.2 3 Este 5 Sudeste 0 1006.9 -- 97
2021-02-05 00:00:00 10.1 3 Nordeste 11 Este 0 1006.9 -- 97
2021-02-04 23:00:00 9.9 9 Sudeste 13 Este 0.1 1006.5 -- 98
2021-02-04 22:00:00 10.1 5 Nordeste 13 Oeste 1.5 1006.4 -- 97
2021-02-04 21:00:00 10 10 Oeste 15 Sudoeste 3.1 1006.6 -- 96
2021-02-04 20:00:00 10.1 10 Oeste 22 Oeste 2 1006.6 -- 94
2021-02-04 19:00:00 10.6 12 Oeste 30 Oeste 2.3 1006 -- 92
2021-02-04 18:00:00 12.3 22 Oeste 30 Oeste 0 1005.4 -- 79
2021-02-04 17:00:00 13.1 10 Oeste 21 Noroeste 0.1 1005.1 -- 79
2021-02-04 16:00:00 14.5 3 Oeste 13 Oeste 0 1004.6 -- 72
2021-02-04 15:00:00 15.1 7 Sudoeste 11 Noroeste 0.1 1004.9 -- 70
2021-02-04 14:00:00 16.3 4 Sudeste 9 Este 0 1005.4 -- 59
2021-02-04 13:00:00 16.1 0 Calma 9 Norte 0 1006 -- 59
2021-02-04 12:00:00 15.4 5 Noroeste 17 Sur 0 1006.6 -- 62
2021-02-04 11:00:00 15.2 11 Sur 21 Sur 0 1006.5 -- 60
2021-02-04 10:00:00 14.7 10 Sudeste 26 Sur 0 1006.6 -- 60
2021-02-04 09:00:00 13.9 4 Nordeste 21 Sur 0 1006 -- 63
2021-02-04 08:00:00 14.4 10 Sudeste 18 Sur 0 1005.8 -- 59
2021-02-04 07:00:00 14.2 6 Nordeste 21 Este 0 1005.8 -- 60
2021-02-04 06:00:00 14.4 8 Este 30 Sudeste 0 1005.6 -- 60
2021-02-04 05:00:00 14.5 14 Sudeste 30 Sudeste 0 1005.5 -- 60
2021-02-04 04:00:00 13.5 13 Sudeste 28 Sudeste 0 1005.7 -- 64
2021-02-04 03:00:00 14.5 12 Sudeste 21 Sudeste 0 1005.7 -- 59
2021-02-04 02:00:00 14.1 9 Sudeste 22 Sudeste 0 1005.6 -- 63
2021-02-04 01:00:00 14.1 13 Este 18 Sudeste 0 1005.7 -- 65
2021-02-04 00:00:00 15.6 14 Sudeste 33 Sudeste 0 1005.6 -- 56
2021-02-03 23:00:00 16.1 19 Sur 41 Sur 0 1005.5 -- 55
2021-02-03 22:00:00 16.5 17 Sur 33 Sur 0 1005.2 -- 51
2021-02-03 21:00:00 15.8 14 Sudeste 22 Sudeste 0 1005 -- 55
2021-02-03 20:00:00 13.5 10 Nordeste 15 Nordeste 0 1005.3 -- 74
2021-02-03 19:00:00 14.5 2 Este 9 Oeste 0 1005.7 -- 68
2021-02-03 18:00:00 15.1 8 Oeste 15 Oeste 0 1005.5 -- 65
2021-02-03 17:00:00 16 13 Oeste 18 Oeste 0 1005.1 -- 61
2021-02-03 16:00:00 19.3 5 Noroeste 17 Noroeste 0 1005.2 -- 42
2021-02-03 15:00:00 19.5 9 Oeste 45 Oeste 0 1005.4 -- 43
2021-02-03 14:00:00 20 23 Sudoeste 46 Sudoeste 0 1005.4 -- 33
2021-02-03 13:00:00 19.9 21 Sudoeste 41 Sur 0 1005.4 -- 37
2021-02-03 12:00:00 19.4 21 Sudoeste 52 Sudoeste 0 1005.3 -- 45
2021-02-03 11:00:00 18.6 32 Sudoeste 50 Sudoeste 0 1004.8 -- 47
2021-02-03 10:00:00 17.2 9 Oeste 46 Oeste 0 1004.3 -- 55
2021-02-03 09:00:00 17.2 20 Sudoeste 35 Sudoeste 0 1003.4 -- 53
2021-02-03 08:00:00 17.1 11 Sudoeste 41 Sudoeste 0 1002.6 -- 54
2021-02-03 07:00:00 17.3 22 Sudoeste 54 Sudoeste 0 1001.8 -- 52
2021-02-03 06:00:00 17.4 24 Sudoeste 50 Sudoeste 0 1001.5 -- 51
2021-02-03 05:00:00 17.8 23 Sur 45 Sudoeste 0 1001 -- 50
2021-02-03 04:00:00 17.8 17 Sur 45 Sur 0 1001.1 -- 49
2021-02-03 03:00:00 17.2 14 Sudeste 37 Sur 0 1001.5 -- 50
2021-02-03 02:00:00 17.8 14 Sur 39 Sur 0 1001.9 -- 48
2021-02-03 01:00:00 17.3 19 Este 41 Sur 0 1002.3 -- 51
2021-02-03 00:00:00 17.9 12 Sur 46 Sudoeste 0 1003 -- 48
2021-02-02 23:00:00 17.3 16 Sudeste 45 Sur 0 1003.9 -- 53
2021-02-02 22:00:00 17.8 14 Sur 42 Sudoeste 0 1004.6 -- 52
2021-02-02 21:00:00 17.9 8 Sur 54 Sudoeste 0 1005.1 -- 53
2021-02-02 20:00:00 17.8 7 Sudeste 42 Sudoeste 0 1004.6 -- 52
2021-02-02 19:00:00 17.6 17 Sur 41 Sur 0 1004.7 -- 54
2021-02-02 18:00:00 16.7 22 Sur 46 Sur 0 1005.1 -- 60
2021-02-02 17:00:00 16 22 Sur 39 Sur 0.1 1005.5 -- 68
2021-02-02 16:00:00 16.6 23 Sur 52 Sudoeste 0.1 1006.8 -- 65
2021-02-02 15:00:00 19.4 26 Sur 45 Sur 0 1006.2 -- 49
2021-02-02 14:00:00 19.9 25 Sudoeste 48 Sudoeste 0 1006.4 -- 47
2021-02-02 13:00:00 19.5 20 Sur 39 Sur 0 1006.5 -- 48
2021-02-02 12:00:00 18.9 23 Sur 45 Sudoeste 0 1007.6 -- 48
2021-02-02 11:00:00 18.2 17 Sur 41 Sudoeste 0 1007.2 -- 52
2021-02-02 10:00:00 17.9 24 Sur 42 Sudoeste 0 1006.4 -- 52
2021-02-02 09:00:00 16.8 9 Sudeste 32 Sudoeste 0 1006.7 -- 58
2021-02-02 08:00:00 15.7 8 Sur 22 Sudeste 0 1006.4 -- 63
2021-02-02 07:00:00 12.1 7 Norte 21 Sudeste 0 1006.8 -- 80
2021-02-02 06:00:00 10.5 5 Este 13 Este 0 1007.5 -- 87
2021-02-02 05:00:00 11.8 5 Este 13 Nordeste 0 1007.2 -- 82
2021-02-02 04:00:00 12.2 12 Este 17 Este 0 1007.3 -- 82
2021-02-02 03:00:00 13 5 Este 13 Nordeste 0 1008.4 -- 80
2021-02-02 02:00:00 12.8 3 Sur 11 Este 0 1008.4 -- 87
2021-02-02 01:00:00 13.4 3 Sudeste 13 Este 0 1008.4 -- 86
2021-02-02 00:00:00 12.9 10 Este 13 Este 0 1008.5 -- 94
2021-02-01 23:00:00 13.3 3 Sur 8 Este 0 1008.3 -- 92
2021-02-01 22:00:00 13.3 6 Sudeste 22 Este 0 1008.1 -- 92
2021-02-01 21:00:00 13.4 10 Este 17 Este 0.1 1008.8 -- 91
2021-02-01 20:00:00 12.9 11 Este 18 Sudeste 0.4 1009.2 -- 95
2021-02-01 19:00:00 13.6 13 Sudeste 18 Sudeste 0.9 1008.8 -- 89
2021-02-01 18:00:00 15 5 Este 21 Noroeste 0 1008.3 -- 74
2021-02-01 17:00:00 15.6 17 Noroeste 28 Noroeste 0 1007.8 -- 71
2021-02-01 16:00:00 16.1 18 Noroeste 28 Noroeste 0 1007.5 -- 70
2021-02-01 15:00:00 15.6 17 Noroeste 42 Noroeste 0 1007.1 -- 72
2021-02-01 14:00:00 15.1 25 Noroeste 45 Noroeste 0 1007.3 -- 75
2021-02-01 13:00:00 15.3 29 Noroeste 52 Noroeste 0 1007.5 -- 71
2021-02-01 12:00:00 15.2 20 Oeste 37 Noroeste 0 1006.9 -- 69
2021-02-01 11:00:00 14.7 12 Oeste 24 Noroeste 0 1006.2 -- 69
2021-02-01 10:00:00 14.1 15 Oeste 37 Oeste 0 1005.6 -- 70
2021-02-01 09:00:00 13.3 19 Oeste 45 Noroeste 0 1004.9 -- 72
2021-02-01 08:00:00 13.8 37 Oeste 54 Noroeste 0 1003.9 -- 66
2021-02-01 07:00:00 14.3 35 Oeste 63 Oeste 0 1003.2 -- 61
2021-02-01 06:00:00 14.4 38 Oeste 55 Oeste 0 1002.9 -- 60
2021-02-01 05:00:00 14.2 24 Oeste 63 Oeste 0 1002.7 -- 65
2021-02-01 04:00:00 14.4 37 Oeste 59 Oeste 0 1002.6 -- 64
2021-02-01 03:00:00 14.1 28 Oeste 55 Oeste 0 1002.7 -- 66
2021-02-01 02:00:00 14.5 32 Oeste -- -- -- 1002.3 -- 65
2021-02-01 01:00:00 14.3 32 Oeste 67 Noroeste 0 1002 -- 68
2021-02-01 00:00:00 15 35 Noroeste 50 Oeste 0 1001.4 -- 65
2021-01-31 23:00:00 15.1 26 Oeste 42 Oeste 0 1000.8 -- 66
2021-01-31 22:00:00 13.7 15 Oeste 37 Oeste 0 1000.6 -- 80
2021-01-31 21:00:00 10.9 5 Noroeste 17 Oeste 0 1000.4 -- 96
2021-01-31 20:00:00 10.8 3 Sudoeste 9 Este 0 1000 -- 94
2021-01-31 19:00:00 12.3 8 Este 13 Sudeste 0 999.2 -- 90
2021-01-31 18:00:00 14.6 6 Este 15 Sudeste 0 999.3 -- 81
2021-01-31 17:00:00 15.8 7 Sudeste 13 Sudeste 0 1000.5 -- 75
2021-01-31 16:00:00 15.2 9 Este 15 Sudeste 0 1001.3 -- 79
2021-01-31 15:00:00 13.9 6 Este 11 Nordeste 0 1002.5 -- 81
2021-01-31 14:00:00 12.8 6 Oeste 21 Sur 0 1003.5 -- 78
2021-01-31 13:00:00 11.1 8 Sur 17 Sudeste 0.2 1004.1 -- 88
2021-01-31 12:00:00 10.4 5 Nordeste 21 Sudeste 0.3 1004.8 -- 91
2021-01-31 11:00:00 10.2 13 Sudeste 24 Sur 2.3 1005.1 -- 88
2021-01-31 10:00:00 12.7 10 Sudoeste 18 Sudoeste 0.2 1005.4 -- 73
2021-01-31 09:00:00 12.9 13 Oeste 48 Oeste 0 1005.2 -- 70
2021-01-31 08:00:00 13.4 30 Oeste 59 Oeste 0 1005.1 -- 55
2021-01-31 07:00:00 13.2 37 Oeste 71 Noroeste 0 1004.8 -- 55
2021-01-31 06:00:00 12.5 45 Oeste 68 Oeste 0 1004.4 -- 63
2021-01-31 05:00:00 11.7 41 Oeste 78 Oeste 0.4 1004.2 -- 72
2021-01-31 04:00:00 12.2 54 Oeste 85 Oeste 1 1004.2 -- 68
2021-01-31 03:00:00 12.2 41 Oeste 72 Oeste 0 1003.8 -- 68
2021-01-31 02:00:00 12.7 48 Oeste -- -- -- 1003.6 -- 63
2021-01-31 01:00:00 12.4 43 Oeste 76 Oeste 0.4 1003.3 -- 65
2021-01-31 00:00:00 12.5 49 Oeste 72 Oeste 1.3 1003.2 -- 62